createdAt,value
2022-11-05T00:01:05.926Z,56.61
2022-11-05T00:03:48.569Z,56.69
2022-11-05T00:06:34.108Z,56.70
2022-11-05T00:09:16.891Z,57.01
2022-11-05T00:11:59.807Z,56.84
2022-11-05T00:14:42.537Z,57.00
2022-11-05T00:17:13.308Z,57.27
2022-11-05T00:19:43.726Z,57.08
2022-11-05T00:22:29.163Z,57.55
2022-11-05T00:25:11.902Z,57.29
2022-11-05T00:27:43.271Z,57.38
2022-11-05T00:30:17.130Z,57.51
2022-11-05T00:32:48.712Z,57.76
2022-11-05T00:35:20.622Z,57.47
2022-11-05T00:37:56.475Z,57.51
2022-11-05T00:40:26.936Z,57.43
2022-11-05T00:43:10.060Z,57.64
2022-11-05T00:45:41.310Z,57.46
2022-11-05T00:48:24.166Z,57.32
2022-11-05T00:50:54.683Z,57.28
2022-11-05T00:53:27.974Z,57.35
2022-11-05T00:55:58.610Z,57.19
2022-11-05T00:58:30.197Z,57.22
2022-11-05T01:01:01.900Z,57.25
2022-11-05T01:03:34.786Z,57.45
2022-11-05T01:06:10.736Z,57.24
2022-11-05T01:08:45.463Z,57.26
2022-11-05T01:11:33.611Z,57.05
2022-11-05T01:14:05.329Z,57.50
2022-11-05T01:16:36.450Z,57.49
2022-11-05T01:19:08.343Z,57.41
2022-11-05T01:21:39.082Z,57.46
2022-11-05T01:24:13.925Z,57.30
2022-11-05T01:26:44.357Z,57.04
2022-11-05T01:29:15.185Z,57.30
2022-11-05T01:31:45.771Z,57.19
2022-11-05T01:34:16.351Z,57.14
2022-11-05T01:36:46.816Z,57.26
2022-11-05T01:39:20.057Z,57.27
2022-11-05T01:41:50.558Z,57.22
2022-11-05T01:44:50.863Z,57.28
2022-11-05T01:47:30.986Z,57.30
2022-11-05T01:50:06.288Z,57.24
2022-11-05T01:52:38.237Z,57.72
2022-11-05T01:55:13.407Z,57.31
2022-11-05T01:57:44.158Z,57.28
2022-11-05T02:00:16.814Z,57.29
2022-11-05T02:02:47.640Z,57.30
2022-11-05T02:05:18.929Z,57.38
2022-11-05T02:07:51.212Z,57.38
2022-11-05T02:10:25.893Z,57.49
2022-11-05T02:12:56.388Z,57.25
2022-11-05T02:15:58.239Z,57.35
2022-11-05T02:18:42.127Z,57.32
2022-11-05T02:21:39.588Z,57.26
2022-11-05T02:24:45.143Z,57.22
2022-11-05T02:27:23.909Z,57.23
2022-11-05T02:30:34.562Z,57.33
2022-11-05T02:33:14.040Z,57.13
2022-11-05T02:35:58.464Z,57.20
2022-11-05T02:38:41.342Z,57.12
2022-11-05T02:41:21.667Z,57.23
2022-11-05T02:44:06.154Z,57.38
2022-11-05T02:46:48.891Z,57.35
2022-11-05T02:49:27.154Z,57.40
2022-11-05T02:52:01.217Z,57.62
2022-11-05T02:54:39.625Z,57.52
2022-11-05T02:57:10.484Z,57.37
2022-11-05T02:59:41.005Z,57.60
2022-11-05T03:02:14.420Z,57.71
2022-11-05T03:04:45.117Z,57.65
2022-11-05T03:07:40.655Z,57.78
2022-11-05T03:10:42.418Z,58.01
2022-11-05T03:13:19.987Z,57.95
2022-11-05T03:15:59.935Z,57.70
2022-11-05T03:18:42.673Z,57.81
2022-11-05T03:21:20.337Z,57.73
2022-11-05T03:23:56.336Z,57.60
2022-11-05T03:26:32.203Z,57.66
2022-11-05T03:29:09.023Z,57.72
2022-11-05T03:31:42.556Z,57.54
2022-11-05T03:34:17.979Z,57.65
2022-11-05T03:36:51.718Z,57.35
2022-11-05T03:39:26.203Z,57.31
2022-11-05T03:41:58.661Z,57.32
2022-11-05T03:44:34.034Z,57.25
2022-11-05T03:47:08.766Z,57.39
2022-11-05T03:49:46.841Z,57.34
2022-11-05T03:52:21.487Z,57.07
2022-11-05T03:54:52.145Z,57.14
2022-11-05T03:57:28.101Z,57.08
2022-11-05T03:59:58.533Z,57.04
2022-11-05T04:02:31.503Z,57.32
2022-11-05T04:05:04.731Z,57.31
2022-11-05T04:07:47.571Z,57.20
2022-11-05T04:10:30.348Z,56.97
2022-11-05T04:13:13.386Z,57.02
2022-11-05T04:15:56.235Z,56.78
2022-11-05T04:18:26.799Z,56.78
2022-11-05T04:21:12.148Z,56.85
2022-11-05T04:23:55.163Z,57.00
2022-11-05T04:26:25.705Z,56.90
2022-11-05T04:29:08.992Z,56.85
2022-11-05T04:31:39.955Z,57.03
2022-11-05T04:34:11.163Z,56.98
2022-11-05T04:36:45.016Z,56.93
2022-11-05T04:39:15.586Z,56.77
2022-11-05T04:41:46.838Z,56.80
2022-11-05T04:44:18.353Z,56.82
2022-11-05T04:46:49.117Z,57.04
2022-11-05T04:49:19.818Z,57.06
2022-11-05T04:51:53.051Z,57.20
2022-11-05T04:54:23.529Z,57.29
2022-11-05T04:56:54.391Z,57.02
2022-11-05T04:59:24.818Z,56.97
2022-11-05T05:01:55.570Z,57.14
2022-11-05T05:04:26.053Z,57.41
2022-11-05T05:06:59.189Z,57.40
2022-11-05T05:09:29.781Z,57.70
2022-11-05T05:12:00.332Z,57.74
2022-11-05T05:14:30.764Z,57.87
2022-11-05T05:17:01.249Z,57.97
2022-11-05T05:19:51.986Z,57.94
2022-11-05T05:22:22.503Z,58.21
2022-11-05T05:24:53.258Z,58.26
2022-11-05T05:27:23.801Z,58.41
2022-11-05T05:29:54.269Z,58.38
2022-11-05T05:32:24.777Z,58.53
2022-11-05T05:34:55.784Z,58.66
2022-11-05T05:37:28.962Z,58.66
2022-11-05T05:39:59.489Z,58.76
2022-11-05T05:42:30.036Z,58.78
2022-11-05T05:45:00.550Z,58.87
2022-11-05T05:47:31.087Z,58.92
2022-11-05T05:50:01.569Z,59.17
2022-11-05T05:52:36.315Z,58.94
2022-11-05T05:55:07.425Z,59.16
2022-11-05T05:57:38.188Z,59.38
2022-11-05T06:00:09.722Z,58.99
2022-11-05T06:02:43.610Z,58.44
2022-11-05T06:05:14.167Z,57.93
2022-11-05T06:07:47.315Z,57.63
2022-11-05T06:10:17.866Z,57.25
2022-11-05T06:12:48.413Z,56.84
2022-11-05T06:15:19.026Z,56.66
2022-11-05T06:17:49.980Z,56.04
2022-11-05T06:20:20.893Z,55.36
2022-11-05T06:23:00.682Z,54.94
2022-11-05T06:25:31.169Z,54.71
2022-11-05T06:28:02.437Z,54.37
2022-11-05T06:30:33.123Z,53.81
2022-11-05T06:33:06.580Z,53.34
2022-11-05T06:35:37.155Z,53.13
2022-11-05T06:38:10.619Z,52.53
2022-11-05T06:40:41.107Z,52.63
2022-11-05T06:43:11.830Z,52.20
2022-11-05T06:45:42.631Z,52.01
2022-11-05T06:48:13.165Z,51.70
2022-11-05T06:50:47.252Z,50.82
2022-11-05T06:53:20.336Z,50.90
2022-11-05T06:55:50.869Z,51.10
2022-11-05T06:58:21.722Z,50.79
2022-11-05T07:00:52.263Z,50.53
2022-11-05T07:03:22.817Z,50.09
2022-11-05T07:05:54.027Z,49.50
2022-11-05T07:08:27.139Z,49.04
2022-11-05T07:10:57.586Z,48.20
2022-11-05T07:13:28.187Z,47.50
2022-11-05T07:15:58.796Z,46.83
2022-11-05T07:18:29.370Z,45.92
2022-11-05T07:20:59.854Z,45.07
2022-11-05T07:23:33.124Z,43.94
2022-11-05T07:26:03.576Z,43.21
2022-11-05T07:28:34.115Z,39.96
2022-11-05T07:31:04.659Z,40.29
2022-11-05T07:33:36.647Z,38.65
2022-11-05T07:36:08.632Z,37.84
2022-11-05T07:38:41.859Z,36.30
2022-11-05T07:41:12.389Z,36.94
2022-11-05T07:43:42.874Z,36.28
2022-11-05T07:46:14.036Z,35.40
2022-11-05T07:48:45.209Z,34.94
2022-11-05T07:51:15.956Z,34.86
2022-11-05T07:53:49.133Z,33.99
2022-11-05T07:56:19.724Z,33.70
2022-11-05T07:58:50.562Z,33.23
2022-11-05T08:01:21.216Z,34.06
2022-11-05T08:03:51.932Z,33.12
2022-11-05T08:06:22.766Z,33.21
2022-11-05T08:08:56.093Z,33.37
2022-11-05T08:11:26.618Z,33.23
2022-11-05T08:13:57.218Z,32.78
2022-11-05T08:16:27.786Z,32.99
2022-11-05T08:18:58.380Z,33.16
2022-11-05T08:21:28.900Z,32.55
2022-11-05T08:24:02.093Z,32.48
2022-11-05T08:26:32.586Z,32.42
2022-11-05T08:29:03.203Z,32.09
2022-11-05T08:31:37.279Z,32.77
2022-11-05T08:34:08.016Z,31.81
2022-11-05T08:36:42.364Z,31.95
2022-11-05T08:39:18.756Z,31.21
2022-11-05T08:41:50.395Z,29.92
2022-11-05T08:44:21.012Z,30.42
2022-11-05T08:46:51.612Z,30.23
2022-11-05T08:49:22.126Z,30.34
2022-11-05T08:51:52.613Z,29.31
2022-11-05T08:54:25.855Z,29.54
2022-11-05T08:56:56.485Z,29.50
2022-11-05T08:59:27.382Z,29.45
2022-11-05T09:01:57.987Z,28.89
2022-11-05T09:04:28.588Z,29.21
2022-11-05T09:06:59.068Z,30.00
2022-11-05T09:09:32.964Z,29.98
2022-11-05T09:12:12.182Z,30.09
2022-11-05T09:14:43.567Z,30.15
2022-11-05T09:17:20.094Z,28.74
2022-11-05T09:19:52.202Z,28.63
2022-11-05T09:22:22.709Z,28.48
2022-11-05T09:24:55.874Z,28.85
2022-11-05T09:27:26.704Z,27.89
2022-11-05T09:29:57.206Z,28.11
2022-11-05T09:32:27.682Z,28.13
2022-11-05T09:35:00.458Z,26.90
2022-11-05T09:37:32.045Z,27.58
2022-11-05T09:40:05.318Z,27.01
2022-11-05T09:42:40.921Z,26.83
2022-11-05T09:45:17.997Z,28.03
2022-11-05T09:47:52.528Z,27.79
2022-11-05T09:50:29.234Z,27.38
2022-11-05T09:52:59.933Z,27.13
2022-11-05T09:55:36.590Z,27.11
2022-11-05T09:58:12.665Z,26.71
2022-11-05T10:00:43.865Z,26.15
2022-11-05T10:03:18.339Z,26.52
2022-11-05T10:05:50.063Z,26.23
2022-11-05T10:08:25.660Z,26.03
2022-11-05T10:11:02.495Z,24.93
2022-11-05T10:13:39.552Z,24.98
2022-11-05T10:16:24.233Z,25.22
2022-11-05T10:18:58.151Z,25.02
2022-11-05T10:21:59.380Z,24.12
2022-11-05T10:56:05.878Z,23.18
2022-11-05T10:58:42.295Z,22.97
2022-11-05T11:01:16.033Z,23.81
2022-11-05T11:03:50.078Z,24.32
2022-11-05T11:06:26.527Z,24.10
2022-11-05T11:09:00.179Z,24.00
2022-11-05T11:11:39.270Z,24.58
2022-11-05T11:14:22.713Z,25.40
2022-11-05T11:16:57.705Z,25.17
2022-11-05T11:19:29.827Z,25.42
2022-11-05T11:22:17.257Z,26.11
2022-11-05T11:24:50.220Z,26.47
2022-11-05T11:27:27.043Z,26.75
2022-11-05T11:30:03.309Z,27.29
2022-11-05T11:32:39.377Z,27.65
2022-11-05T11:35:21.678Z,27.68
2022-11-05T11:37:55.208Z,27.45
2022-11-05T11:40:28.248Z,27.70
2022-11-05T11:43:03.873Z,28.35
2022-11-05T11:45:37.202Z,28.45
2022-11-05T11:48:09.953Z,28.60
2022-11-05T11:50:44.102Z,28.87
2022-11-05T11:53:29.558Z,28.19
2022-11-05T11:56:08.563Z,28.44
2022-11-05T11:58:45.743Z,28.37
2022-11-05T12:01:53.623Z,28.71
2022-11-05T12:04:53.902Z,28.75
2022-11-05T12:07:40.977Z,28.92
2022-11-05T12:10:28.161Z,28.82
2022-11-05T12:13:30.196Z,29.71
2022-11-05T12:16:11.152Z,29.25
2022-11-05T12:18:50.013Z,29.58
2022-11-05T12:21:51.285Z,29.67
2022-11-05T12:24:32.770Z,29.56
2022-11-05T12:27:14.099Z,29.68
2022-11-05T12:29:57.117Z,29.08
2022-11-05T12:32:46.604Z,29.44
2022-11-05T12:35:30.186Z,29.64
2022-11-05T12:38:12.289Z,29.29
2022-11-05T12:41:18.561Z,28.96
2022-11-05T12:44:03.726Z,29.09
2022-11-05T12:46:41.442Z,29.30
2022-11-05T12:49:32.477Z,29.78
2022-11-05T12:52:19.355Z,30.02
2022-11-05T12:55:03.327Z,30.69
2022-11-05T12:57:36.210Z,30.57
2022-11-05T13:00:11.016Z,30.78
2022-11-05T13:02:47.761Z,31.03
2022-11-05T13:05:25.673Z,31.00
2022-11-05T13:08:02.322Z,31.38
2022-11-05T13:10:37.471Z,32.14
2022-11-05T13:13:16.455Z,32.28
2022-11-05T13:15:53.813Z,32.39
2022-11-05T13:18:33.091Z,33.37
2022-11-05T13:21:10.806Z,33.14
2022-11-05T13:23:45.410Z,33.34
2022-11-05T13:26:20.905Z,33.93
2022-11-05T13:28:57.152Z,34.14
2022-11-05T13:31:35.054Z,33.75
2022-11-05T13:34:12.343Z,34.32
2022-11-05T13:37:06.009Z,34.58
2022-11-05T13:39:39.757Z,34.43
2022-11-05T13:42:37.459Z,34.70
2022-11-05T13:45:28.986Z,34.64
2022-11-05T13:48:20.502Z,34.29
2022-11-05T13:51:12.512Z,33.88
2022-11-05T13:54:07.778Z,33.23
2022-11-05T13:56:55.434Z,32.64
2022-11-05T13:59:54.094Z,32.00
2022-11-05T14:02:27.941Z,32.54
2022-11-05T14:05:02.213Z,32.37
2022-11-05T14:07:37.504Z,32.74
2022-11-05T14:10:20.967Z,32.57
2022-11-05T14:12:53.784Z,32.98
2022-11-05T14:15:28.353Z,32.98
2022-11-05T14:18:02.275Z,33.37
2022-11-05T14:20:46.795Z,33.66
2022-11-05T14:23:43.382Z,33.94
2022-11-05T14:26:22.205Z,34.03
2022-11-05T14:29:08.832Z,34.26
2022-11-05T14:32:13.574Z,34.43
2022-11-05T14:34:48.463Z,34.74
2022-11-05T14:37:27.630Z,35.38
2022-11-05T14:39:58.823Z,35.95
2022-11-05T14:42:33.514Z,36.18
2022-11-05T14:45:23.847Z,36.50
2022-11-05T14:47:57.335Z,36.56
2022-11-05T14:50:36.586Z,37.09
2022-11-05T14:53:29.912Z,37.62
2022-11-05T14:56:04.017Z,37.78
2022-11-05T14:58:38.888Z,38.46
2022-11-05T15:01:10.880Z,38.59
2022-11-05T15:04:08.723Z,38.99
2022-11-05T15:06:39.910Z,38.93
2022-11-05T15:09:32.711Z,39.57
2022-11-05T15:12:11.634Z,39.63
2022-11-05T15:15:00.269Z,40.29
2022-11-05T15:17:33.427Z,39.74
2022-11-05T15:20:12.240Z,40.45
2022-11-05T15:22:46.097Z,40.61
2022-11-05T15:25:20.738Z,40.78
2022-11-05T15:28:02.757Z,41.18
2022-11-05T15:30:36.818Z,41.12
2022-11-05T15:33:21.205Z,41.35
2022-11-05T15:35:51.638Z,41.44
2022-11-05T15:38:30.928Z,41.87
2022-11-05T15:41:03.082Z,41.70
2022-11-05T15:43:33.873Z,41.87
2022-11-05T15:46:17.466Z,42.00
2022-11-05T15:48:50.121Z,42.03
2022-11-05T15:51:20.803Z,42.52
2022-11-05T15:54:29.717Z,42.70
2022-11-05T15:56:54.465Z,42.89
2022-11-05T15:59:26.698Z,42.59
2022-11-05T16:02:04.109Z,42.93
2022-11-05T16:04:37.325Z,42.99
2022-11-05T16:07:13.826Z,43.08
2022-11-05T16:09:46.677Z,43.63
2022-11-05T16:12:26.957Z,43.46
2022-11-05T16:15:06.264Z,44.01
2022-11-05T16:17:50.825Z,44.86
2022-11-05T16:20:24.290Z,44.76
2022-11-05T16:22:56.917Z,44.87
2022-11-05T16:25:33.095Z,45.02
2022-11-05T16:28:04.359Z,45.12
2022-11-05T16:30:34.937Z,45.29
2022-11-05T16:33:11.576Z,45.37
2022-11-05T16:35:50.612Z,45.15
2022-11-05T16:38:25.230Z,45.73
2022-11-05T16:40:55.766Z,45.64
2022-11-05T16:43:28.275Z,45.74
2022-11-05T16:46:01.488Z,45.86
2022-11-05T16:48:34.604Z,46.08
2022-11-05T16:51:05.169Z,46.17
2022-11-05T16:53:35.558Z,46.15
2022-11-05T16:56:06.468Z,46.28
2022-11-05T16:58:37.027Z,46.21
2022-11-05T17:01:10.778Z,46.56
2022-11-05T17:03:43.922Z,46.58
2022-11-05T17:06:15.117Z,46.28
2022-11-05T17:08:46.774Z,46.55
2022-11-05T17:11:18.320Z,46.94
2022-11-05T17:13:49.505Z,46.76
2022-11-05T17:16:20.862Z,47.04
2022-11-05T17:18:53.950Z,47.34
2022-11-05T17:21:24.390Z,46.87
2022-11-05T17:23:54.849Z,47.16
2022-11-05T17:26:25.811Z,47.30
2022-11-05T17:28:56.288Z,47.75
2022-11-05T17:31:27.529Z,47.61
2022-11-05T17:34:02.088Z,48.32
2022-11-05T17:36:32.585Z,47.73
2022-11-05T17:39:03.034Z,47.97
2022-11-05T17:41:33.731Z,48.75
2022-11-05T17:44:04.175Z,48.75
2022-11-05T17:46:34.893Z,48.13
2022-11-05T17:49:07.994Z,48.76
2022-11-05T17:51:38.918Z,48.72
2022-11-05T17:54:09.354Z,49.06
2022-11-05T17:56:44.886Z,48.89
2022-11-05T17:59:15.444Z,49.17
2022-11-05T18:01:46.241Z,48.62
2022-11-05T18:04:19.562Z,48.90
2022-11-05T18:06:50.685Z,49.16
2022-11-05T18:09:21.387Z,49.07
2022-11-05T18:11:51.977Z,49.35
2022-11-05T18:14:24.269Z,49.10
2022-11-05T18:16:55.581Z,48.82
2022-11-05T18:19:29.243Z,49.06
2022-11-05T18:22:00.426Z,49.97
2022-11-05T18:24:30.965Z,54.22
2022-11-05T18:27:01.785Z,54.36
2022-11-05T18:29:32.621Z,53.48
2022-11-05T18:32:03.292Z,54.43
2022-11-05T18:34:36.389Z,53.85
2022-11-05T18:37:07.051Z,55.26
2022-11-05T18:39:37.523Z,56.28
2022-11-05T18:42:08.396Z,55.68
2022-11-05T18:44:39.646Z,55.86
2022-11-05T18:47:10.477Z,56.79
2022-11-05T18:49:43.606Z,56.93
2022-11-05T18:52:14.194Z,56.98
2022-11-05T18:54:44.610Z,57.71
2022-11-05T18:57:15.452Z,57.56
2022-11-05T18:59:46.918Z,62.41
2022-11-05T19:02:18.342Z,59.20
2022-11-05T19:05:22.168Z,58.31
2022-11-05T19:07:42.903Z,59.82
2022-11-05T19:10:13.398Z,58.87
2022-11-05T19:12:44.013Z,58.57
2022-11-05T19:15:14.712Z,59.89
2022-11-05T19:17:45.262Z,59.16
2022-11-05T19:20:18.463Z,61.31
2022-11-05T19:22:49.101Z,59.85
2022-11-05T19:25:19.622Z,58.26
2022-11-05T19:27:50.204Z,60.12
2022-11-05T19:30:20.939Z,58.52
2022-11-05T19:32:51.487Z,58.64
2022-11-05T19:35:24.742Z,57.87
2022-11-05T19:37:55.354Z,56.39
2022-11-05T19:40:25.842Z,57.45
2022-11-05T19:42:56.474Z,56.13
2022-11-05T19:48:19.752Z,56.49
2022-11-05T19:50:53.192Z,55.16
2022-11-05T19:53:23.675Z,56.07
2022-11-05T19:55:54.095Z,54.85
2022-11-05T19:58:24.835Z,57.48
2022-11-05T20:00:58.323Z,55.48
2022-11-05T20:03:29.077Z,54.92
2022-11-05T20:06:05.623Z,54.87
2022-11-05T20:08:47.807Z,55.83
2022-11-05T20:11:27.019Z,54.98
2022-11-05T20:13:57.611Z,54.57
2022-11-05T20:16:32.407Z,55.91
2022-11-05T20:19:02.912Z,55.19
2022-11-05T20:21:36.042Z,54.60
2022-11-05T20:24:07.287Z,55.33
2022-11-05T20:26:38.578Z,54.97
2022-11-05T20:29:09.522Z,55.34
2022-11-05T20:31:39.937Z,55.23
2022-11-05T20:34:10.687Z,55.22
2022-11-05T20:36:44.323Z,55.21
2022-11-05T20:39:15.018Z,54.42
2022-11-05T20:41:45.474Z,55.28
2022-11-05T20:44:16.133Z,55.01
2022-11-05T20:46:46.738Z,54.99
2022-11-05T20:49:21.248Z,54.74
2022-11-05T20:51:57.596Z,57.63
2022-11-05T20:54:28.302Z,55.33
2022-11-05T20:56:58.833Z,54.79
2022-11-05T20:59:29.634Z,55.24
2022-11-05T21:02:00.298Z,54.79
2022-11-05T21:04:31.026Z,54.50
2022-11-05T21:07:04.098Z,54.33
2022-11-05T21:09:34.779Z,54.25
2022-11-05T21:12:14.347Z,53.57
2022-11-05T21:14:46.109Z,53.10
2022-11-05T21:17:16.915Z,53.07
2022-11-05T21:19:47.512Z,52.15
2022-11-05T21:22:20.599Z,52.14
2022-11-05T21:24:51.108Z,51.56
2022-11-05T21:27:21.659Z,51.53
2022-11-05T21:29:52.169Z,51.11
2022-11-05T21:32:22.624Z,51.03
2022-11-05T21:34:53.267Z,51.05
2022-11-05T21:37:26.708Z,50.46
2022-11-05T21:39:57.263Z,50.40
2022-11-05T21:42:27.817Z,50.15
2022-11-05T21:45:00.557Z,50.38
2022-11-05T21:47:31.890Z,50.30
2022-11-05T21:50:02.474Z,50.09
2022-11-05T21:52:48.482Z,50.22
2022-11-05T21:55:31.281Z,50.35
2022-11-05T21:58:24.567Z,50.20
2022-11-05T22:00:55.066Z,50.13
2022-11-05T22:03:25.461Z,50.37
2022-11-05T22:05:56.589Z,50.05
2022-11-05T22:08:29.698Z,50.11
2022-11-05T22:11:00.362Z,49.94
2022-11-05T22:13:30.907Z,50.07
2022-11-05T22:16:01.569Z,49.97
2022-11-05T22:18:32.378Z,49.90
2022-11-05T22:21:02.929Z,49.83
2022-11-05T22:23:35.969Z,49.68
2022-11-05T22:26:06.552Z,49.70
2022-11-05T22:28:36.993Z,49.63
2022-11-05T22:31:07.531Z,49.93
2022-11-05T22:33:38.036Z,49.85
2022-11-05T22:36:09.343Z,49.75
2022-11-05T22:38:43.111Z,49.70
2022-11-05T22:41:15.789Z,49.65
2022-11-05T22:43:47.060Z,49.55
2022-11-05T22:46:19.190Z,49.68
2022-11-05T22:48:50.323Z,49.77
2022-11-05T22:51:24.161Z,49.92
2022-11-05T22:53:57.736Z,49.90
2022-11-05T22:56:30.419Z,49.89
2022-11-05T22:59:01.241Z,50.14
2022-11-05T23:01:32.837Z,49.95
2022-11-05T23:04:03.633Z,50.23
2022-11-05T23:06:47.854Z,50.42
2022-11-05T23:09:34.953Z,50.48
2022-11-05T23:12:07.642Z,50.84
2022-11-05T23:14:38.442Z,50.66
2022-11-05T23:17:21.340Z,50.67
2022-11-05T23:20:04.173Z,50.66
2022-11-05T23:22:47.433Z,50.67
2022-11-05T23:25:23.694Z,50.43
2022-11-05T23:27:56.436Z,50.38
2022-11-05T23:30:30.630Z,49.77
2022-11-05T23:32:59.786Z,49.23
2022-11-05T23:35:43.287Z,48.26
2022-11-05T23:38:26.612Z,47.07
2022-11-05T23:41:15.846Z,46.25
2022-11-05T23:43:59.198Z,45.94
2022-11-05T23:46:42.459Z,45.96
2022-11-05T23:49:15.697Z,45.95
2022-11-05T23:51:47.217Z,46.09
2022-11-05T23:54:18.902Z,45.83
2022-11-05T23:56:52.118Z,45.94
2022-11-05T23:59:22.699Z,45.97
